25°C Temp
22°C Dewpoint
83% Humidity
Temperature
29 KM/H
18 MPH
16 KTS
10°
Due North

Wind Speed
Mostly Cloudy
Conditions
Pressure 1005.92 (hPa) - 29.7 (in)
Visibility 6.2 (mi) - 10.0 (km)

Current Conditions
YBBN
Location 16(km)
Metar :YBBN 151100Z 01016KT 9999 BKN018 25/22 Q1006
Fri 15th January 21:00 pm

Airport
  Metar Aviation API Data Provided by https://www.checkwx.com/ PHP scripts by weather34.com ©2021